createdAt,value
2018-11-29T00:00:21.559Z,29.43
2018-11-29T00:02:50.853Z,33.40
2018-11-29T00:05:19.557Z,32.67
2018-11-29T00:07:48.257Z,32.87
2018-11-29T00:10:16.951Z,28.60
2018-11-29T00:12:45.668Z,29.47
2018-11-29T00:15:15.111Z,33.30
2018-11-29T00:17:43.830Z,31.13
2018-11-29T00:20:16.283Z,32.10
2018-11-29T00:22:45.667Z,31.20
2018-11-29T00:25:15.179Z,32.97
2018-11-29T00:27:44.159Z,29.33
2018-11-29T00:30:13.752Z,27.10
2018-11-29T00:32:42.488Z,30.80
2018-11-29T00:35:12.053Z,25.97
2018-11-29T00:37:40.769Z,37.47
2018-11-29T00:40:10.947Z,28.40
2018-11-29T00:42:39.656Z,34.97
2018-11-29T00:45:10.772Z,27.23
2018-11-29T00:47:39.502Z,28.70
2018-11-29T00:50:09.775Z,32.53
2018-11-29T00:52:39.339Z,39.07
2018-11-29T00:55:09.299Z,31.70
2018-11-29T00:57:38.201Z,26.00
2018-11-29T01:00:13.044Z,28.70
2018-11-29T01:02:41.739Z,32.10
2018-11-29T01:05:10.495Z,34.70
2018-11-29T01:07:39.480Z,39.13
2018-11-29T01:10:10.440Z,37.27
2018-11-29T01:12:39.158Z,33.33
2018-11-29T01:15:10.344Z,33.80
2018-11-29T01:17:39.056Z,33.03
2018-11-29T01:20:09.867Z,30.23
2018-11-29T01:22:38.547Z,34.27
2018-11-29T01:25:08.591Z,31.77
2018-11-29T01:27:37.290Z,27.43
2018-11-29T01:30:08.515Z,29.47
2018-11-29T01:32:37.359Z,31.97
2018-11-29T01:35:06.788Z,30.87
2018-11-29T01:37:35.494Z,30.37
2018-11-29T01:40:04.691Z,34.17
2018-11-29T01:42:33.384Z,26.77
2018-11-29T01:45:02.092Z,27.67
2018-11-29T01:47:30.784Z,32.93
2018-11-29T01:49:59.484Z,31.57
2018-11-29T01:52:28.180Z,38.57
2018-11-29T01:54:56.883Z,37.23
2018-11-29T01:57:25.579Z,30.50
2018-11-29T01:59:54.281Z,26.97
2018-11-29T02:02:22.988Z,31.07
2018-11-29T02:04:51.687Z,30.67
2018-11-29T02:07:20.371Z,31.50
2018-11-29T02:09:49.087Z,29.87
2018-11-29T02:12:17.789Z,28.13
2018-11-29T02:14:46.471Z,31.97
2018-11-29T02:17:15.178Z,28.77
2018-11-29T02:19:43.867Z,28.27
2018-11-29T02:22:12.564Z,31.60
2018-11-29T02:24:41.260Z,30.93
2018-11-29T02:27:10.011Z,34.27
2018-11-29T02:29:38.713Z,30.87
2018-11-29T02:32:07.414Z,29.33
2018-11-29T02:34:36.108Z,26.83
2018-11-29T02:37:10.025Z,26.07
2018-11-29T02:39:38.738Z,31.77
2018-11-29T02:42:07.424Z,28.50
2018-11-29T02:44:36.256Z,28.33
2018-11-29T02:47:04.975Z,29.53
2018-11-29T02:49:33.671Z,25.83
2018-11-29T02:52:02.379Z,33.27
2018-11-29T02:54:31.097Z,33.30
2018-11-29T02:56:59.790Z,29.80
2018-11-29T02:59:28.524Z,29.77
2018-11-29T03:01:57.236Z,31.57
2018-11-29T03:04:25.932Z,33.37
2018-11-29T03:06:54.638Z,30.90
2018-11-29T03:09:23.363Z,29.23
2018-11-29T03:11:52.050Z,28.40
2018-11-29T03:14:20.744Z,31.63
2018-11-29T03:16:53.659Z,27.50
2018-11-29T03:19:22.343Z,28.23
2018-11-29T03:21:51.057Z,35.20
2018-11-29T03:24:19.738Z,30.63
2018-11-29T03:26:48.423Z,31.40
2018-11-29T03:29:17.111Z,33.50
2018-11-29T03:31:45.810Z,26.40
2018-11-29T03:34:14.508Z,27.90
2018-11-29T03:36:43.195Z,29.10
2018-11-29T03:39:11.921Z,31.63
2018-11-29T03:41:40.615Z,33.07
2018-11-29T03:44:09.311Z,35.20
2018-11-29T03:46:38.016Z,29.57
2018-11-29T03:49:06.735Z,30.43
2018-11-29T03:51:35.434Z,31.47
2018-11-29T03:54:04.119Z,29.30
2018-11-29T03:56:33.062Z,34.90
2018-11-29T03:59:01.753Z,33.67
2018-11-29T04:01:30.439Z,30.73
2018-11-29T04:03:59.143Z,31.13
2018-11-29T04:06:27.880Z,26.73
2018-11-29T04:08:56.621Z,32.83
2018-11-29T04:11:25.339Z,32.57
2018-11-29T04:13:54.046Z,29.73
2018-11-29T04:16:22.777Z,31.90
2018-11-29T04:18:51.508Z,33.57
2018-11-29T04:21:20.244Z,28.50
2018-11-29T04:23:48.951Z,31.10
2018-11-29T04:26:17.663Z,28.17
2018-11-29T04:28:46.394Z,35.83
2018-11-29T04:31:15.108Z,31.33
2018-11-29T04:33:43.839Z,31.73
2018-11-29T04:36:12.551Z,29.03
2018-11-29T04:38:41.268Z,28.73
2018-11-29T04:41:09.985Z,30.90
2018-11-29T04:43:38.709Z,32.03
2018-11-29T04:46:52.127Z,27.27
2018-11-29T04:49:20.859Z,28.27
2018-11-29T04:51:50.432Z,27.33
2018-11-29T04:54:19.139Z,27.30
2018-11-29T04:56:48.055Z,32.20
2018-11-29T04:59:16.774Z,31.53
2018-11-29T05:01:45.482Z,30.83
2018-11-29T05:04:14.256Z,32.07
2018-11-29T05:06:42.976Z,30.33
2018-11-29T05:09:11.689Z,28.03
2018-11-29T05:11:40.412Z,31.47
2018-11-29T05:14:09.242Z,34.30
2018-11-29T05:16:37.850Z,32.10
2018-11-29T05:19:06.567Z,30.03
2018-11-29T05:21:35.297Z,31.20
2018-11-29T05:24:04.028Z,31.23
2018-11-29T05:26:32.736Z,30.83
2018-11-29T05:29:01.462Z,33.23
2018-11-29T05:31:30.183Z,33.40
2018-11-29T05:33:58.914Z,35.80
2018-11-29T05:36:27.636Z,36.03
2018-11-29T05:38:56.352Z,32.10
2018-11-29T05:41:25.080Z,32.73
2018-11-29T05:43:53.815Z,30.13
2018-11-29T05:46:22.632Z,30.57
2018-11-29T05:48:51.355Z,34.30
2018-11-29T05:51:20.064Z,34.93
2018-11-29T05:53:48.784Z,33.43
2018-11-29T05:56:17.800Z,34.23
2018-11-29T05:58:46.509Z,38.20
2018-11-29T06:01:19.228Z,33.37
2018-11-29T06:03:47.944Z,28.50
2018-11-29T06:06:16.666Z,37.57
2018-11-29T06:08:45.395Z,36.43
2018-11-29T06:11:14.115Z,35.67
2018-11-29T06:13:42.820Z,30.67
2018-11-29T06:16:11.568Z,32.30
2018-11-29T06:18:40.271Z,36.33
2018-11-29T06:21:09.004Z,33.10
2018-11-29T06:23:37.720Z,37.90
2018-11-29T06:26:06.659Z,32.63
2018-11-29T06:28:35.595Z,30.43
2018-11-29T06:31:04.473Z,34.50
2018-11-29T06:33:33.188Z,31.23
2018-11-29T06:36:02.128Z,33.53
2018-11-29T06:38:30.635Z,34.83
2018-11-29T06:40:59.364Z,27.97
2018-11-29T06:43:28.101Z,34.03
2018-11-29T06:45:56.808Z,32.17
2018-11-29T06:48:25.519Z,32.60
2018-11-29T06:50:54.247Z,34.27
2018-11-29T06:53:28.500Z,41.90
2018-11-29T06:56:03.793Z,36.97
2018-11-29T06:58:32.512Z,32.57
2018-11-29T07:01:01.231Z,29.10
2018-11-29T07:03:29.943Z,31.77
2018-11-29T07:05:58.651Z,30.87
2018-11-29T07:08:27.388Z,32.63
2018-11-29T07:10:56.452Z,29.63
2018-11-29T07:13:25.144Z,32.17
2018-11-29T07:15:53.943Z,35.23
2018-11-29T07:18:22.664Z,29.30
2018-11-29T07:21:12.399Z,34.10
2018-11-29T07:23:41.116Z,37.07
2018-11-29T07:26:09.840Z,32.63
2018-11-29T07:28:38.547Z,31.20
2018-11-29T07:31:07.372Z,29.13
2018-11-29T07:33:36.515Z,30.60
2018-11-29T07:36:05.913Z,32.03
2018-11-29T07:38:34.615Z,29.03
2018-11-29T07:41:03.339Z,32.83
2018-11-29T07:43:32.051Z,35.63
2018-11-29T07:46:00.775Z,31.40
2018-11-29T07:48:29.583Z,29.20
2018-11-29T07:50:58.291Z,28.57
2018-11-29T07:53:27.008Z,29.30
2018-11-29T07:55:55.727Z,30.50
2018-11-29T07:58:24.449Z,36.47
2018-11-29T08:00:53.158Z,36.83
2018-11-29T08:03:21.880Z,29.60
2018-11-29T08:05:50.583Z,36.00
2018-11-29T08:08:19.304Z,26.90
2018-11-29T08:10:48.053Z,24.80
2018-11-29T08:13:20.704Z,30.70
2018-11-29T08:15:49.585Z,32.73
2018-11-29T08:18:18.320Z,30.77
2018-11-29T08:20:47.068Z,32.70
2018-11-29T08:23:15.789Z,32.97
2018-11-29T08:25:44.512Z,31.80
2018-11-29T08:33:59.756Z,34.87
2018-11-29T08:36:28.480Z,36.60
2018-11-29T08:38:57.199Z,35.60
2018-11-29T08:41:29.999Z,35.43
2018-11-29T08:43:58.716Z,26.67
2018-11-29T08:46:27.428Z,26.47
2018-11-29T08:49:01.000Z,32.90
2018-11-29T08:51:29.791Z,40.97
2018-11-29T08:53:58.527Z,32.67
2018-11-29T08:56:43.719Z,31.87
2018-11-29T08:59:12.435Z,36.07
2018-11-29T09:01:41.152Z,28.87
2018-11-29T09:04:09.867Z,30.53
2018-11-29T09:06:38.576Z,26.27
2018-11-29T09:09:08.360Z,35.07
2018-11-29T09:11:37.076Z,38.67
2018-11-29T09:14:05.783Z,30.73
2018-11-29T09:16:34.504Z,29.20
2018-11-29T09:19:03.228Z,31.03
2018-11-29T09:21:31.946Z,40.33
2018-11-29T09:24:00.664Z,29.47
2018-11-29T09:26:29.378Z,31.73
2018-11-29T09:28:58.090Z,33.17
2018-11-29T09:31:27.115Z,35.30
2018-11-29T09:33:55.836Z,31.77
2018-11-29T09:36:24.560Z,30.77
2018-11-29T09:38:53.301Z,28.47
2018-11-29T09:41:22.013Z,32.37
2018-11-29T09:43:50.723Z,32.47
2018-11-29T09:46:19.445Z,32.87
2018-11-29T09:48:48.180Z,32.53
2018-11-29T09:51:16.879Z,32.77
2018-11-29T09:53:45.924Z,35.40
2018-11-29T09:56:14.641Z,30.10
2018-11-29T09:58:43.352Z,35.73
2018-11-29T10:01:12.071Z,31.73
2018-11-29T10:03:40.797Z,31.33
2018-11-29T10:06:09.503Z,26.70
2018-11-29T10:08:38.224Z,37.13
2018-11-29T10:11:06.940Z,27.90
2018-11-29T10:13:35.665Z,35.10
2018-11-29T10:16:04.401Z,35.47
2018-11-29T10:18:33.108Z,33.37
2018-11-29T10:21:01.822Z,32.20
2018-11-29T10:23:30.550Z,32.53
2018-11-29T10:25:59.292Z,35.43
2018-11-29T10:28:28.007Z,31.40
2018-11-29T10:30:59.362Z,32.93
2018-11-29T10:33:28.070Z,34.50
2018-11-29T10:35:59.247Z,40.13
2018-11-29T10:38:25.512Z,40.03
2018-11-29T10:41:06.667Z,32.27
2018-11-29T10:49:22.633Z,31.80
2018-11-29T10:51:51.339Z,28.17
2018-11-29T10:54:20.048Z,27.47
2018-11-29T10:56:49.072Z,32.70
2018-11-29T10:59:17.788Z,24.37
2018-11-29T11:01:50.753Z,34.57
2018-11-29T11:04:19.471Z,29.93
2018-11-29T11:06:48.185Z,27.93
2018-11-29T11:09:20.075Z,32.33
2018-11-29T11:11:48.781Z,34.27
2018-11-29T11:14:17.499Z,27.83
2018-11-29T11:16:46.216Z,31.30
2018-11-29T11:19:14.932Z,31.87
2018-11-29T11:21:53.496Z,35.60
2018-11-29T11:24:22.204Z,32.23
2018-11-29T11:26:50.920Z,29.40
2018-11-29T11:29:19.639Z,26.57
2018-11-29T11:31:48.382Z,27.20
2018-11-29T11:34:17.099Z,34.70
2018-11-29T11:36:45.827Z,26.63
2018-11-29T11:39:14.531Z,26.97
2018-11-29T11:41:43.271Z,29.87
2018-11-29T11:44:11.989Z,32.43
2018-11-29T11:46:40.703Z,30.10
2018-11-29T11:49:09.435Z,34.80
2018-11-29T11:51:54.530Z,26.37
2018-11-29T11:54:23.244Z,28.10
2018-11-29T11:56:51.968Z,28.87
2018-11-29T11:59:20.691Z,25.70
2018-11-29T12:01:49.408Z,28.00
2018-11-29T12:04:18.129Z,25.07
2018-11-29T12:06:46.848Z,30.63
2018-11-29T12:15:00.240Z,27.57
2018-11-29T12:17:28.956Z,23.03
2018-11-29T12:19:57.699Z,29.37
2018-11-29T12:22:26.423Z,30.37
2018-11-29T12:24:55.140Z,31.17
2018-11-29T12:27:25.895Z,28.70
2018-11-29T12:29:54.607Z,27.27
2018-11-29T12:32:23.320Z,26.77
2018-11-29T12:34:52.048Z,27.43
2018-11-29T12:37:20.756Z,23.43
2018-11-29T12:39:49.471Z,28.27
2018-11-29T12:42:18.222Z,27.83
2018-11-29T12:44:46.932Z,23.27
2018-11-29T12:47:15.641Z,28.43
2018-11-29T12:49:44.356Z,25.57
2018-11-29T12:52:21.696Z,26.00
2018-11-29T12:54:50.683Z,22.43
2018-11-29T12:57:19.387Z,24.10
2018-11-29T12:59:48.136Z,20.73
2018-11-29T13:02:21.828Z,22.37
2018-11-29T13:04:50.553Z,23.23
2018-11-29T13:07:19.268Z,20.97
2018-11-29T13:09:47.996Z,19.40
2018-11-29T13:12:16.711Z,21.20
2018-11-29T13:14:45.428Z,19.10
2018-11-29T13:17:25.536Z,26.13
2018-11-29T13:19:54.300Z,24.20
2018-11-29T13:22:22.983Z,22.53
2018-11-29T13:24:51.706Z,20.20
2018-11-29T13:27:20.420Z,22.67
2018-11-29T13:29:49.169Z,23.07
2018-11-29T13:32:17.851Z,28.13
2018-11-29T13:34:46.588Z,20.40
2018-11-29T13:37:15.374Z,18.87
2018-11-29T13:39:44.032Z,21.30
2018-11-29T13:42:14.809Z,27.43
2018-11-29T13:44:43.540Z,27.37
2018-11-29T13:47:12.271Z,23.67
2018-11-29T13:49:40.997Z,21.70
2018-11-29T13:52:09.696Z,21.87
2018-11-29T13:54:38.419Z,19.67
2018-11-29T13:57:07.149Z,21.73
2018-11-29T13:59:35.868Z,20.20
2018-11-29T14:02:04.616Z,20.73
2018-11-29T14:04:33.323Z,19.13
2018-11-29T14:07:02.039Z,21.60
2018-11-29T14:09:30.772Z,31.83
2018-11-29T14:11:59.516Z,22.70
2018-11-29T14:14:28.252Z,22.30
2018-11-29T14:16:56.976Z,19.97
2018-11-29T14:19:25.734Z,25.13
2018-11-29T14:21:54.404Z,22.07
2018-11-29T14:24:23.460Z,18.87
2018-11-29T14:26:52.171Z,16.70
2018-11-29T14:29:20.905Z,16.93
2018-11-29T14:31:49.620Z,20.10
2018-11-29T14:34:18.336Z,18.57
2018-11-29T14:36:47.043Z,16.33
2018-11-29T14:39:15.768Z,17.37
2018-11-29T14:41:44.492Z,22.10
2018-11-29T14:44:13.221Z,17.87
2018-11-29T14:46:41.965Z,19.30
2018-11-29T14:49:10.715Z,16.83
2018-11-29T14:51:39.533Z,19.60
2018-11-29T14:54:08.172Z,18.17
2018-11-29T14:56:36.897Z,20.13
2018-11-29T14:59:05.607Z,20.47
2018-11-29T15:01:34.315Z,15.27
2018-11-29T15:04:03.091Z,15.63
2018-11-29T15:06:31.795Z,15.27
2018-11-29T15:09:00.536Z,18.83
2018-11-29T15:11:29.410Z,19.87
2018-11-29T15:13:57.963Z,14.73
2018-11-29T15:16:27.087Z,15.63
2018-11-29T15:18:55.820Z,15.37
2018-11-29T15:21:24.535Z,14.57
2018-11-29T15:23:53.284Z,12.20
2018-11-29T15:26:22.019Z,9.60
2018-11-29T15:28:50.768Z,12.00
2018-11-29T15:31:19.475Z,16.30
2018-11-29T15:33:48.187Z,14.10
2018-11-29T15:36:16.903Z,15.37
2018-11-29T15:38:45.631Z,15.97
2018-11-29T15:41:18.135Z,14.13
2018-11-29T15:43:43.096Z,14.43
2018-11-29T15:46:11.814Z,19.17
2018-11-29T15:48:40.533Z,16.43
2018-11-29T15:51:09.284Z,14.27
2018-11-29T15:53:38.076Z,17.10
2018-11-29T15:56:06.797Z,13.10
2018-11-29T15:58:35.532Z,12.33
2018-11-29T16:01:04.272Z,15.80
2018-11-29T16:03:33.979Z,17.77
2018-11-29T16:06:02.724Z,11.40
2018-11-29T16:08:31.459Z,14.80
2018-11-29T16:11:00.172Z,16.97
2018-11-29T16:13:28.895Z,15.70
2018-11-29T16:15:57.609Z,18.57
2018-11-29T16:18:26.323Z,18.23
2018-11-29T16:20:55.067Z,18.00
2018-11-29T16:23:23.792Z,18.53
2018-11-29T16:25:52.619Z,25.33
2018-11-29T16:28:21.347Z,17.30
2018-11-29T16:30:54.228Z,14.97
2018-11-29T16:33:33.463Z,15.63
2018-11-29T16:36:02.380Z,12.60
2018-11-29T16:38:31.100Z,14.23
2018-11-29T16:41:00.224Z,13.73
2018-11-29T16:43:28.972Z,16.20
2018-11-29T16:45:57.688Z,16.20
2018-11-29T16:48:26.419Z,12.30
2018-11-29T16:50:55.178Z,15.53
2018-11-29T16:53:23.855Z,11.93
2018-11-29T16:55:52.590Z,12.23
2018-11-29T16:58:24.112Z,13.20
2018-11-29T17:00:53.008Z,12.10
2018-11-29T17:03:21.851Z,13.00
2018-11-29T17:05:50.968Z,9.67
2018-11-29T17:08:19.757Z,13.03
2018-11-29T17:10:48.526Z,10.73
2018-11-29T17:13:18.532Z,9.37
2018-11-29T17:15:47.445Z,10.33
2018-11-29T17:18:16.401Z,10.93
2018-11-29T17:20:45.181Z,8.83
2018-11-29T17:23:14.143Z,8.60
2018-11-29T17:25:43.015Z,10.83
2018-11-29T17:28:11.941Z,9.70
2018-11-29T17:30:40.871Z,9.23
2018-11-29T17:33:09.949Z,9.57
2018-11-29T17:35:38.749Z,11.30
2018-11-29T17:38:07.685Z,10.07
2018-11-29T17:40:37.682Z,12.63
2018-11-29T17:43:07.145Z,12.70
2018-11-29T17:45:36.105Z,7.27
2018-11-29T17:48:07.268Z,11.43
2018-11-29T17:50:37.481Z,10.87
2018-11-29T17:53:06.775Z,13.87
2018-11-29T17:55:35.872Z,9.60
2018-11-29T17:58:08.261Z,11.23
2018-11-29T18:00:37.172Z,8.73
2018-11-29T18:03:07.092Z,10.90
2018-11-29T18:05:36.084Z,11.93
2018-11-29T18:08:04.839Z,12.50
2018-11-29T18:10:35.096Z,11.13
2018-11-29T18:13:10.564Z,11.73
2018-11-29T18:15:39.281Z,11.30
2018-11-29T18:18:07.984Z,10.70
2018-11-29T18:20:36.782Z,11.43
2018-11-29T18:23:06.409Z,8.90
2018-11-29T18:25:35.157Z,8.57
2018-11-29T18:28:03.879Z,9.77
2018-11-29T18:30:32.583Z,9.07
2018-11-29T18:33:01.299Z,10.50
2018-11-29T18:35:30.036Z,8.90
2018-11-29T18:37:58.745Z,11.73
2018-11-29T18:40:27.547Z,11.70
2018-11-29T18:42:58.352Z,12.27
2018-11-29T18:45:27.224Z,11.13
2018-11-29T18:47:56.102Z,11.07
2018-11-29T18:50:25.895Z,14.13
2018-11-29T18:52:54.626Z,10.13
2018-11-29T18:55:24.442Z,11.70
2018-11-29T18:57:53.915Z,11.27
2018-11-29T19:00:27.859Z,10.23
2018-11-29T19:02:57.145Z,11.33
2018-11-29T19:05:25.352Z,9.23
2018-11-29T19:07:54.069Z,11.27
2018-11-29T19:10:22.960Z,9.50
2018-11-29T19:13:02.128Z,9.43
2018-11-29T19:15:30.847Z,9.67
2018-11-29T19:17:59.555Z,11.07
2018-11-29T19:20:28.280Z,9.57
2018-11-29T19:22:57.072Z,10.27
2018-11-29T19:25:25.719Z,9.13
2018-11-29T19:27:54.758Z,10.40
2018-11-29T19:30:25.551Z,8.93
2018-11-29T19:32:59.771Z,7.47
2018-11-29T19:35:28.395Z,8.50
2018-11-29T19:37:57.099Z,7.53
2018-11-29T19:40:25.842Z,9.73
2018-11-29T19:42:54.578Z,7.40
2018-11-29T19:45:23.267Z,7.60
2018-11-29T19:47:52.004Z,10.57
2018-11-29T19:50:20.746Z,10.40
2018-11-29T19:52:50.993Z,10.80
2018-11-29T19:55:22.199Z,12.73
2018-11-29T19:57:51.238Z,12.60
2018-11-29T20:00:20.371Z,13.20
2018-11-29T20:02:50.375Z,10.67
2018-11-29T20:05:19.082Z,12.60
2018-11-29T20:07:47.799Z,15.77
2018-11-29T20:10:17.517Z,12.73
2018-11-29T20:12:47.528Z,12.77
2018-11-29T20:15:18.591Z,13.70
2018-11-29T20:17:47.548Z,18.53
2018-11-29T20:20:16.294Z,20.63
2018-11-29T20:22:45.019Z,15.53
2018-11-29T20:25:16.683Z,16.17
2018-11-29T20:27:45.431Z,14.83
2018-11-29T20:30:16.311Z,21.83
2018-11-29T20:32:45.411Z,17.70
2018-11-29T20:35:14.152Z,13.60
2018-11-29T20:37:42.856Z,16.53
2018-11-29T20:40:13.125Z,13.60
2018-11-29T20:42:41.876Z,13.30
2018-11-29T20:45:46.881Z,14.30
2018-11-29T20:48:17.915Z,15.07
2018-11-29T20:50:46.980Z,13.77
2018-11-29T20:53:19.724Z,11.83
2018-11-29T20:55:48.475Z,15.90
2018-11-29T20:58:17.187Z,16.10
2018-11-29T21:00:45.943Z,11.70
2018-11-29T21:03:14.680Z,11.10
2018-11-29T21:05:43.656Z,10.30
2018-11-29T21:08:12.656Z,13.03
2018-11-29T21:10:41.400Z,11.30
2018-11-29T21:13:10.147Z,10.53
2018-11-29T21:15:40.269Z,11.33
2018-11-29T21:18:13.267Z,10.57
2018-11-29T21:20:42.839Z,11.57
2018-11-29T21:23:14.927Z,9.77
2018-11-29T21:25:44.148Z,8.80
2018-11-29T21:28:12.862Z,8.13
2018-11-29T21:30:41.568Z,12.10
2018-11-29T21:33:10.696Z,13.33
2018-11-29T21:35:39.436Z,20.17
2018-11-29T21:38:13.610Z,19.43
2018-11-29T21:40:45.432Z,23.03
2018-11-29T21:43:14.179Z,20.83
2018-11-29T21:45:42.913Z,16.73
2018-11-29T21:48:11.617Z,12.77
2018-11-29T21:50:40.368Z,12.80
2018-11-29T21:53:09.119Z,15.87
2018-11-29T21:55:37.821Z,14.93
2018-11-29T21:58:06.536Z,16.70
2018-11-29T22:00:35.248Z,15.83
2018-11-29T22:03:03.980Z,16.53
2018-11-29T22:05:32.727Z,13.20
2018-11-29T22:08:01.434Z,9.43
2018-11-29T22:10:30.152Z,10.83
2018-11-29T22:12:58.884Z,14.63
2018-11-29T22:15:27.595Z,11.60
2018-11-29T22:18:18.037Z,11.03
2018-11-29T22:20:47.638Z,12.40
2018-11-29T22:23:16.368Z,11.20
2018-11-29T22:25:45.091Z,12.30
2018-11-29T22:28:13.808Z,10.60
2018-11-29T22:30:42.522Z,11.37
2018-11-29T22:33:11.237Z,12.07
2018-11-29T22:35:39.963Z,10.37
2018-11-29T22:38:08.772Z,13.37
2018-11-29T22:40:37.475Z,12.53
2018-11-29T22:43:06.223Z,14.10
2018-11-29T22:45:34.950Z,15.93
2018-11-29T22:48:03.698Z,14.20
2018-11-29T22:50:32.404Z,11.73
2018-11-29T22:53:01.135Z,11.00
2018-11-29T22:55:29.873Z,11.30
2018-11-29T22:57:58.607Z,10.20
2018-11-29T23:00:31.892Z,12.13
2018-11-29T23:03:00.655Z,12.47
2018-11-29T23:05:29.365Z,10.67
2018-11-29T23:07:58.092Z,11.97
2018-11-29T23:10:27.821Z,12.43
2018-11-29T23:12:55.797Z,16.40
2018-11-29T23:15:24.523Z,10.50
2018-11-29T23:17:53.251Z,10.70
2018-11-29T23:20:21.970Z,10.73
2018-11-29T23:22:50.691Z,11.67
2018-11-29T23:25:19.796Z,11.33
2018-11-29T23:27:48.499Z,10.43
2018-11-29T23:30:17.659Z,9.83
2018-11-29T23:32:46.384Z,11.57
2018-11-29T23:35:15.479Z,10.97
2018-11-29T23:37:44.187Z,10.97
2018-11-29T23:40:16.820Z,10.60
2018-11-29T23:42:45.888Z,9.13
2018-11-29T23:45:14.779Z,11.40
2018-11-29T23:47:43.524Z,16.40
2018-11-29T23:50:14.401Z,19.00
2018-11-29T23:52:43.147Z,15.33
2018-11-29T23:55:13.200Z,13.30
2018-11-29T23:57:41.912Z,13.33
